createdAt,value
2019-02-09T00:00:28.298Z,1.30
2019-02-09T00:02:57.075Z,1.20
2019-02-09T00:05:25.803Z,0.97
2019-02-09T00:07:54.541Z,1.07
2019-02-09T00:10:23.385Z,1.50
2019-02-09T00:12:52.079Z,1.53
2019-02-09T00:15:20.924Z,1.50
2019-02-09T00:17:49.621Z,1.20
2019-02-09T00:20:18.379Z,0.73
2019-02-09T00:22:47.211Z,0.97
2019-02-09T00:25:15.941Z,0.80
2019-02-09T00:27:47.434Z,0.80
2019-02-09T00:30:15.686Z,0.87
2019-02-09T00:32:44.454Z,1.27
2019-02-09T00:35:13.358Z,1.17
2019-02-09T00:37:42.151Z,1.47
2019-02-09T00:40:11.075Z,1.00
2019-02-09T00:42:39.785Z,1.87
2019-02-09T00:45:09.205Z,0.90
2019-02-09T00:47:39.771Z,1.20
2019-02-09T00:50:08.560Z,1.43
2019-02-09T00:52:37.367Z,1.03
2019-02-09T00:55:06.618Z,1.07
2019-02-09T00:57:35.361Z,1.20
2019-02-09T01:00:05.978Z,1.00
2019-02-09T01:02:34.696Z,0.93
2019-02-09T01:05:03.653Z,1.67
2019-02-09T01:07:32.492Z,1.17
2019-02-09T01:10:01.209Z,1.00
2019-02-09T01:12:30.126Z,1.10
2019-02-09T01:14:58.850Z,1.20
2019-02-09T01:17:27.698Z,0.87
2019-02-09T01:19:56.486Z,1.27
2019-02-09T01:22:25.294Z,1.00
2019-02-09T01:24:54.080Z,1.00
2019-02-09T01:27:24.875Z,0.90
2019-02-09T01:29:53.718Z,1.20
2019-02-09T01:32:22.479Z,1.20
2019-02-09T01:34:51.281Z,0.97
2019-02-09T01:37:20.057Z,1.30
2019-02-09T01:39:48.990Z,1.00
2019-02-09T01:42:17.769Z,1.27
2019-02-09T01:44:46.553Z,0.60
2019-02-09T01:47:15.267Z,1.70
2019-02-09T01:49:44.006Z,1.20
2019-02-09T01:52:14.933Z,0.87
2019-02-09T01:54:43.641Z,0.97
2019-02-09T01:57:12.352Z,0.90
2019-02-09T01:59:41.100Z,1.17
2019-02-09T02:02:09.813Z,1.10
2019-02-09T02:04:38.607Z,1.07
2019-02-09T02:07:07.657Z,1.13
2019-02-09T02:09:36.378Z,0.90
2019-02-09T02:12:05.291Z,0.93
2019-02-09T02:14:34.022Z,0.87
2019-02-09T02:17:02.818Z,1.30
2019-02-09T02:19:31.604Z,1.00
2019-02-09T02:22:00.323Z,0.70
2019-02-09T02:24:29.058Z,1.33
2019-02-09T02:26:57.833Z,0.93
2019-02-09T02:29:26.524Z,1.00
2019-02-09T02:31:55.254Z,1.20
2019-02-09T02:34:23.956Z,0.67
2019-02-09T02:36:52.681Z,1.10
2019-02-09T02:39:21.428Z,0.83
2019-02-09T02:41:50.290Z,0.90
2019-02-09T02:44:18.987Z,0.83
2019-02-09T02:46:47.806Z,1.03
2019-02-09T02:49:16.609Z,1.27
2019-02-09T02:51:45.308Z,1.50
2019-02-09T02:54:15.020Z,1.30
2019-02-09T02:56:43.880Z,1.57
2019-02-09T02:59:12.650Z,1.40
2019-02-09T03:01:41.373Z,0.67
2019-02-09T03:04:10.108Z,1.07
2019-02-09T03:06:38.919Z,1.10
2019-02-09T03:09:08.441Z,1.40
2019-02-09T03:11:37.177Z,1.17
2019-02-09T03:14:05.876Z,1.30
2019-02-09T03:16:34.735Z,0.93
2019-02-09T03:19:03.808Z,0.90
2019-02-09T03:21:32.526Z,1.10
2019-02-09T03:24:01.295Z,1.03
2019-02-09T03:26:32.364Z,1.17
2019-02-09T03:29:01.140Z,1.10
2019-02-09T03:31:29.868Z,1.00
2019-02-09T03:33:58.647Z,1.10
2019-02-09T03:36:27.369Z,1.23
2019-02-09T03:38:56.092Z,1.00
2019-02-09T03:41:24.813Z,1.40
2019-02-09T03:43:53.593Z,1.10
2019-02-09T03:46:22.315Z,1.03
2019-02-09T03:48:51.015Z,1.07
2019-02-09T03:51:19.815Z,0.97
2019-02-09T03:53:48.526Z,1.13
2019-02-09T03:56:17.310Z,0.97
2019-02-09T03:58:46.035Z,1.00
2019-02-09T04:01:14.719Z,1.30
2019-02-09T04:03:43.449Z,1.17
2019-02-09T04:06:12.257Z,1.10
2019-02-09T04:08:41.053Z,1.20
2019-02-09T04:11:09.849Z,1.27
2019-02-09T04:13:38.574Z,1.30
2019-02-09T04:16:07.375Z,1.20
2019-02-09T04:18:36.135Z,1.30
2019-02-09T04:21:05.018Z,1.10
2019-02-09T04:23:33.814Z,1.23
2019-02-09T04:26:02.539Z,1.20
2019-02-09T04:28:31.275Z,1.47
2019-02-09T04:31:05.914Z,1.13
2019-02-09T04:33:30.538Z,1.03
2019-02-09T04:35:59.244Z,1.40
2019-02-09T04:38:27.965Z,1.20
2019-02-09T04:40:56.676Z,1.33
2019-02-09T04:43:25.390Z,1.33
2019-02-09T04:45:54.081Z,1.23
2019-02-09T04:48:22.873Z,1.40
2019-02-09T04:50:51.667Z,1.53
2019-02-09T04:53:20.408Z,1.33
2019-02-09T04:55:49.198Z,1.70
2019-02-09T04:58:17.981Z,1.00
2019-02-09T05:00:47.106Z,1.30
2019-02-09T05:03:15.860Z,1.33
2019-02-09T05:05:44.569Z,1.10
2019-02-09T05:08:13.400Z,0.90
2019-02-09T05:10:42.179Z,0.90
2019-02-09T05:13:10.894Z,1.43
2019-02-09T05:15:39.602Z,1.27
2019-02-09T05:18:11.804Z,1.30
2019-02-09T05:20:40.500Z,1.10
2019-02-09T05:23:09.332Z,1.43
2019-02-09T05:25:38.046Z,1.47
2019-02-09T05:28:06.838Z,1.00
2019-02-09T05:30:35.640Z,1.50
2019-02-09T05:33:04.345Z,1.93
2019-02-09T05:35:33.069Z,1.40
2019-02-09T05:38:01.861Z,1.43
2019-02-09T05:40:30.580Z,1.23
2019-02-09T05:42:59.285Z,1.53
2019-02-09T05:45:28.445Z,1.23
2019-02-09T05:47:57.240Z,1.30
2019-02-09T05:50:26.307Z,1.37
2019-02-09T05:52:55.146Z,1.53
2019-02-09T05:55:23.968Z,1.20
2019-02-09T05:57:52.705Z,1.07
2019-02-09T06:00:26.434Z,1.20
2019-02-09T06:02:55.164Z,1.10
2019-02-09T06:05:23.859Z,1.30
2019-02-09T06:07:52.617Z,1.57
2019-02-09T06:10:21.481Z,1.50
2019-02-09T06:12:50.220Z,1.43
2019-02-09T06:15:19.106Z,2.00
2019-02-09T06:17:47.996Z,1.87
2019-02-09T06:20:18.441Z,1.40
2019-02-09T06:22:47.164Z,1.83
2019-02-09T06:25:15.897Z,1.70
2019-02-09T06:27:44.681Z,1.93
2019-02-09T06:30:15.183Z,1.63
2019-02-09T06:32:44.002Z,2.00
2019-02-09T06:35:12.716Z,1.77
2019-02-09T06:37:41.523Z,1.40
2019-02-09T06:40:10.904Z,1.47
2019-02-09T06:42:39.600Z,1.30
2019-02-09T06:45:12.725Z,1.37
2019-02-09T06:47:41.448Z,1.30
2019-02-09T06:50:11.501Z,1.33
2019-02-09T06:52:40.271Z,0.90
2019-02-09T06:55:10.075Z,0.90
2019-02-09T06:57:38.796Z,1.00
2019-02-09T07:00:08.383Z,0.80
2019-02-09T07:02:37.110Z,0.70
2019-02-09T07:05:06.431Z,0.70
2019-02-09T07:07:35.266Z,0.90
2019-02-09T07:10:04.711Z,1.00
2019-02-09T07:12:33.439Z,0.60
2019-02-09T07:15:02.164Z,1.20
2019-02-09T07:17:30.959Z,0.83
2019-02-09T07:19:59.764Z,0.97
2019-02-09T07:22:28.570Z,0.93
2019-02-09T07:24:57.296Z,0.70
2019-02-09T07:27:26.022Z,0.97
2019-02-09T07:29:54.759Z,1.20
2019-02-09T07:32:23.572Z,1.17
2019-02-09T07:34:52.397Z,1.40
2019-02-09T07:37:21.239Z,1.50
2019-02-09T07:39:51.145Z,1.70
2019-02-09T07:42:20.007Z,1.57
2019-02-09T07:44:48.781Z,1.30
2019-02-09T07:47:17.489Z,1.53
2019-02-09T07:49:46.249Z,1.50
2019-02-09T07:52:15.050Z,1.83
2019-02-09T07:54:43.800Z,1.57
2019-02-09T07:57:12.531Z,1.50
2019-02-09T07:59:41.298Z,1.87
2019-02-09T08:02:10.043Z,1.90
2019-02-09T08:04:38.838Z,1.37
2019-02-09T08:07:10.169Z,1.50
2019-02-09T08:09:39.056Z,1.47
2019-02-09T08:12:07.926Z,1.50
2019-02-09T08:14:36.790Z,1.37
2019-02-09T08:17:05.573Z,1.53
2019-02-09T08:19:34.325Z,1.13
2019-02-09T08:22:03.153Z,1.30
2019-02-09T08:24:32.076Z,1.70
2019-02-09T08:27:04.654Z,1.23
2019-02-09T08:29:33.386Z,1.03
2019-02-09T08:32:02.134Z,1.00
2019-02-09T08:34:30.952Z,1.10
2019-02-09T08:36:59.880Z,1.50
2019-02-09T08:39:28.694Z,1.40
2019-02-09T08:41:59.299Z,0.93
2019-02-09T08:44:28.111Z,1.47
2019-02-09T08:46:56.939Z,0.90
2019-02-09T08:49:25.699Z,1.07
2019-02-09T08:51:54.565Z,0.90
2019-02-09T08:54:37.378Z,1.20
2019-02-09T08:57:06.149Z,1.10
2019-02-09T08:59:34.905Z,1.37
2019-02-09T09:02:03.694Z,0.73
2019-02-09T09:04:32.488Z,1.27
2019-02-09T09:07:01.229Z,0.90
2019-02-09T09:09:33.492Z,1.63
2019-02-09T09:12:00.804Z,1.30
2019-02-09T09:14:29.654Z,1.10
2019-02-09T09:17:06.163Z,1.50
2019-02-09T09:19:40.167Z,1.57
2019-02-09T09:22:19.895Z,1.20
2019-02-09T09:24:56.947Z,1.07
2019-02-09T09:27:30.822Z,1.30
2019-02-09T09:29:59.636Z,1.20
2019-02-09T09:32:28.834Z,0.70
2019-02-09T09:35:06.519Z,0.80
2019-02-09T09:37:43.600Z,1.07
2019-02-09T09:40:12.299Z,1.57
2019-02-09T09:42:42.741Z,1.83
2019-02-09T09:45:12.850Z,1.77
2019-02-09T09:47:41.615Z,1.40
2019-02-09T09:50:11.299Z,1.30
2019-02-09T09:52:44.264Z,1.33
2019-02-09T09:55:13.217Z,1.50
2019-02-09T09:57:42.007Z,1.20
2019-02-09T10:00:11.930Z,1.47
2019-02-09T10:02:40.912Z,1.70
2019-02-09T10:05:12.838Z,1.27
2019-02-09T10:07:41.577Z,1.27
2019-02-09T10:10:11.572Z,1.53
2019-02-09T10:12:40.389Z,1.33
2019-02-09T10:15:11.665Z,1.20
2019-02-09T10:17:41.526Z,0.80
2019-02-09T10:20:11.213Z,1.27
2019-02-09T10:22:41.624Z,2.20
2019-02-09T10:25:10.387Z,1.20
2019-02-09T10:27:39.715Z,1.30
2019-02-09T10:30:10.493Z,1.77
2019-02-09T10:32:44.429Z,1.20
2019-02-09T10:35:16.774Z,0.63
2019-02-09T10:37:45.759Z,1.10
2019-02-09T10:40:19.160Z,1.27
2019-02-09T10:42:47.952Z,1.67
2019-02-09T10:45:18.072Z,1.23
2019-02-09T10:47:46.927Z,1.30
2019-02-09T10:50:20.248Z,1.20
2019-02-09T10:52:49.147Z,1.37
2019-02-09T10:55:18.021Z,1.13
2019-02-09T10:57:46.800Z,1.00
2019-02-09T11:00:17.517Z,1.13
2019-02-09T11:02:52.090Z,1.50
2019-02-09T11:05:17.170Z,1.60
2019-02-09T11:07:45.998Z,0.93
2019-02-09T11:10:15.876Z,2.03
2019-02-09T11:12:47.451Z,1.53
2019-02-09T11:15:17.185Z,1.50
2019-02-09T11:17:46.113Z,1.40
2019-02-09T11:20:15.857Z,1.77
2019-02-09T11:22:46.841Z,1.50
2019-02-09T11:25:18.530Z,1.43
2019-02-09T11:27:48.610Z,1.17
2019-02-09T11:30:18.938Z,1.50
2019-02-09T11:32:47.814Z,1.20
2019-02-09T11:35:16.652Z,1.20
2019-02-09T11:37:45.483Z,1.10
2019-02-09T11:40:18.339Z,1.50
2019-02-09T11:42:47.422Z,1.80
2019-02-09T11:45:17.703Z,1.67
2019-02-09T11:47:46.468Z,1.63
2019-02-09T11:50:15.363Z,1.43
2019-02-09T11:52:44.198Z,1.27
2019-02-09T11:55:15.961Z,1.40
2019-02-09T11:58:07.738Z,1.60
2019-02-09T12:00:40.948Z,2.13
2019-02-09T12:03:15.040Z,1.90
2019-02-09T12:05:40.242Z,1.93
2019-02-09T12:08:09.112Z,2.27
2019-02-09T12:10:38.015Z,1.17
2019-02-09T12:13:07.272Z,2.20
2019-02-09T12:15:36.182Z,2.00
2019-02-09T12:18:05.987Z,1.80
2019-02-09T12:20:34.767Z,2.03
2019-02-09T12:23:05.563Z,1.57
2019-02-09T12:25:35.157Z,1.40
2019-02-09T12:28:04.587Z,1.50
2019-02-09T12:30:34.395Z,1.33
2019-02-09T12:33:03.202Z,2.03
2019-02-09T12:35:31.985Z,1.50
2019-02-09T12:38:00.802Z,1.37
2019-02-09T12:40:30.636Z,1.67
2019-02-09T12:42:59.446Z,1.97
2019-02-09T12:45:28.729Z,0.80
2019-02-09T12:47:57.519Z,1.40
2019-02-09T12:50:26.503Z,1.50
2019-02-09T12:52:55.416Z,1.27
2019-02-09T12:55:24.400Z,1.50
2019-02-09T12:57:53.161Z,1.53
2019-02-09T13:00:23.249Z,1.47
2019-02-09T13:02:52.033Z,1.70
2019-02-09T13:05:20.809Z,1.23
2019-02-09T13:07:49.559Z,1.70
2019-02-09T13:10:18.525Z,1.83
2019-02-09T13:12:47.365Z,1.43
2019-02-09T13:15:17.583Z,1.50
2019-02-09T13:17:46.356Z,1.93
2019-02-09T13:20:16.417Z,1.40
2019-02-09T13:22:45.204Z,1.37
2019-02-09T13:25:14.063Z,1.20
2019-02-09T13:27:42.800Z,1.50
2019-02-09T13:30:13.192Z,1.53
2019-02-09T13:32:42.117Z,1.70
2019-02-09T13:35:10.992Z,1.03
2019-02-09T13:37:39.731Z,1.43
2019-02-09T13:40:09.098Z,1.63
2019-02-09T13:42:38.050Z,1.70
2019-02-09T13:45:08.919Z,1.27
2019-02-09T13:47:37.698Z,1.93
2019-02-09T13:50:06.493Z,1.30
2019-02-09T13:52:35.334Z,1.63
2019-02-09T13:55:04.633Z,1.83
2019-02-09T13:57:33.431Z,1.30
2019-02-09T14:00:02.174Z,2.17
2019-02-09T14:02:33.027Z,1.20
2019-02-09T14:05:01.540Z,1.30
2019-02-09T14:07:30.429Z,1.33
2019-02-09T14:09:59.157Z,2.07
2019-02-09T14:12:28.026Z,1.70
2019-02-09T14:14:56.830Z,1.37
2019-02-09T14:17:25.650Z,1.43
2019-02-09T14:19:54.539Z,1.63
2019-02-09T14:22:23.479Z,1.40
2019-02-09T14:24:52.290Z,0.90
2019-02-09T14:27:22.463Z,1.70
2019-02-09T14:29:51.392Z,1.27
2019-02-09T14:32:20.186Z,1.33
2019-02-09T14:34:50.491Z,1.30
2019-02-09T14:37:19.360Z,1.80
2019-02-09T14:39:48.117Z,1.80
2019-02-09T14:42:17.899Z,1.43
2019-02-09T14:44:46.699Z,1.37
2019-02-09T14:47:15.762Z,1.27
2019-02-09T14:49:44.607Z,1.83
2019-02-09T14:52:13.398Z,2.03
2019-02-09T14:54:42.392Z,1.30
2019-02-09T14:57:11.304Z,1.67
2019-02-09T14:59:41.371Z,1.30
2019-02-09T15:02:10.974Z,1.10
2019-02-09T15:04:39.872Z,1.10
2019-02-09T15:07:08.966Z,1.47
2019-02-09T15:09:37.875Z,1.50
2019-02-09T15:12:06.755Z,1.37
2019-02-09T15:14:35.561Z,1.60
2019-02-09T15:17:05.701Z,1.17
2019-02-09T15:19:36.313Z,1.57
2019-02-09T15:22:05.166Z,1.30
2019-02-09T15:24:33.963Z,1.60
2019-02-09T15:27:02.873Z,1.50
2019-02-09T15:29:33.991Z,1.57
2019-02-09T15:32:02.865Z,1.57
2019-02-09T15:34:36.693Z,1.60
2019-02-09T15:37:05.526Z,1.37
2019-02-09T15:39:36.660Z,1.00
2019-02-09T15:42:05.586Z,1.47
2019-02-09T15:44:35.998Z,1.10
2019-02-09T15:47:04.902Z,1.87
2019-02-09T15:49:36.196Z,1.50
2019-02-09T15:52:08.058Z,1.70
2019-02-09T15:54:36.925Z,1.60
2019-02-09T15:57:10.020Z,1.57
2019-02-09T15:59:39.388Z,1.60
2019-02-09T16:02:08.142Z,1.73
2019-02-09T16:04:37.009Z,1.13
2019-02-09T16:07:07.265Z,1.80
2019-02-09T16:09:41.049Z,1.33
2019-02-09T16:12:09.847Z,1.40
2019-02-09T16:14:38.726Z,1.53
2019-02-09T16:17:07.493Z,2.03
2019-02-09T16:19:36.723Z,1.63
2019-02-09T16:22:05.511Z,1.30
2019-02-09T16:24:34.337Z,0.77
2019-02-09T16:27:03.105Z,1.20
2019-02-09T16:29:31.942Z,1.53
2019-02-09T16:32:00.769Z,1.73
2019-02-09T16:34:29.520Z,1.60
2019-02-09T16:36:58.300Z,1.90
2019-02-09T16:39:27.164Z,1.70
2019-02-09T16:41:55.979Z,1.60
2019-02-09T16:44:24.803Z,1.07
2019-02-09T16:46:53.700Z,2.30
2019-02-09T16:49:24.009Z,2.30
2019-02-09T16:51:52.956Z,1.40
2019-02-09T16:54:21.738Z,2.13
2019-02-09T16:56:50.553Z,1.20
2019-02-09T16:59:19.325Z,2.47
2019-02-09T17:01:48.298Z,2.10
2019-02-09T17:04:17.269Z,4.60
2019-02-09T17:06:46.108Z,1.93
2019-02-09T17:09:14.942Z,2.20
2019-02-09T17:11:43.699Z,2.10
2019-02-09T17:14:12.461Z,2.40
2019-02-09T17:16:41.289Z,1.93
2019-02-09T17:19:10.092Z,1.70
2019-02-09T17:21:38.974Z,2.30
2019-02-09T17:24:07.779Z,3.57
2019-02-09T17:26:36.535Z,3.33
2019-02-09T17:29:06.120Z,3.00
2019-02-09T17:31:35.075Z,4.13
2019-02-09T17:34:03.985Z,2.23
2019-02-09T17:36:32.737Z,2.03
2019-02-09T17:39:01.580Z,2.43
2019-02-09T17:41:31.856Z,1.93
2019-02-09T17:44:00.586Z,2.13
2019-02-09T17:46:29.485Z,3.27
2019-02-09T17:48:58.325Z,2.10
2019-02-09T17:51:27.216Z,2.77
2019-02-09T17:53:56.068Z,2.17
2019-02-09T17:56:24.840Z,2.50
2019-02-09T17:58:54.627Z,2.53
2019-02-09T18:01:23.529Z,2.00
2019-02-09T18:03:52.319Z,2.37
2019-02-09T18:06:21.154Z,2.17
2019-02-09T18:08:51.704Z,1.97
2019-02-09T18:11:22.835Z,2.07
2019-02-09T18:13:51.706Z,2.57
2019-02-09T18:16:20.516Z,1.70
2019-02-09T18:18:49.338Z,1.40
2019-02-09T18:21:18.126Z,2.33
2019-02-09T18:23:46.919Z,2.13
2019-02-09T18:26:15.915Z,2.20
2019-02-09T18:28:44.660Z,1.80
2019-02-09T18:31:13.878Z,2.03
2019-02-09T18:33:46.957Z,2.20
2019-02-09T18:36:15.550Z,3.03
2019-02-09T18:38:48.729Z,2.10
2019-02-09T18:41:18.687Z,2.10
2019-02-09T18:43:47.577Z,2.60
2019-02-09T18:46:18.472Z,2.53
2019-02-09T18:48:49.587Z,2.60
2019-02-09T18:51:18.504Z,2.50
2019-02-09T18:53:47.398Z,3.00
2019-02-09T18:56:16.284Z,2.07
2019-02-09T18:58:45.132Z,2.53
2019-02-09T19:01:14.199Z,1.87
2019-02-09T19:03:42.959Z,2.17
2019-02-09T19:06:11.865Z,1.63
2019-02-09T19:08:40.740Z,1.93
2019-02-09T19:11:11.214Z,1.67
2019-02-09T19:13:40.044Z,1.67
2019-02-09T19:16:09.034Z,1.83
2019-02-09T19:18:37.855Z,2.20
2019-02-09T19:21:09.108Z,2.23
2019-02-09T19:23:37.978Z,2.87
2019-02-09T19:26:06.954Z,1.80
2019-02-09T19:28:38.186Z,1.40
2019-02-09T19:31:07.033Z,1.63
2019-02-09T19:33:35.871Z,1.73
2019-02-09T19:36:04.752Z,1.63
2019-02-09T19:38:33.639Z,2.07
2019-02-09T19:41:03.848Z,0.83
2019-02-09T19:43:32.618Z,2.20
2019-02-09T19:46:04.448Z,1.80
2019-02-09T19:48:33.272Z,2.50
2019-02-09T19:51:03.359Z,2.37
2019-02-09T19:53:36.954Z,1.30
2019-02-09T19:56:07.820Z,2.53
2019-02-09T19:58:36.373Z,1.97
2019-02-09T20:01:05.250Z,2.87
2019-02-09T20:03:34.134Z,2.10
2019-02-09T20:06:03.009Z,2.43
2019-02-09T20:08:32.018Z,2.30
2019-02-09T20:11:00.880Z,2.17
2019-02-09T20:13:29.756Z,1.67
2019-02-09T20:15:59.663Z,1.80
2019-02-09T20:18:28.577Z,2.17
2019-02-09T20:20:57.648Z,2.07
2019-02-09T20:23:28.827Z,1.97
2019-02-09T20:25:57.674Z,2.00
2019-02-09T20:28:28.220Z,1.57
2019-02-09T20:30:57.094Z,1.87
2019-02-09T20:33:25.916Z,2.30
2019-02-09T20:35:56.225Z,2.27
2019-02-09T20:38:25.075Z,2.03
2019-02-09T20:41:01.453Z,3.50
2019-02-09T20:43:30.296Z,6.53
2019-02-09T20:46:01.315Z,3.23
2019-02-09T20:48:30.202Z,1.60
2019-02-09T20:50:59.045Z,2.67
2019-02-09T20:53:27.894Z,1.33
2019-02-09T20:55:56.781Z,1.70
2019-02-09T20:58:25.621Z,2.63
2019-02-09T21:00:54.480Z,5.60
2019-02-09T21:03:23.408Z,1.93
2019-02-09T21:05:52.291Z,2.83
2019-02-09T21:08:21.163Z,2.37
2019-02-09T21:10:50.221Z,2.43
2019-02-09T21:13:19.050Z,2.13
2019-02-09T21:15:48.051Z,1.67
2019-02-09T21:18:16.911Z,2.63
2019-02-09T21:20:45.650Z,2.20
2019-02-09T21:23:14.503Z,1.93
2019-02-09T21:25:43.563Z,2.00
2019-02-09T21:28:12.430Z,2.00
2019-02-09T21:30:41.262Z,1.50
2019-02-09T21:33:10.102Z,2.37
2019-02-09T21:35:44.021Z,2.13
2019-02-09T21:38:09.864Z,1.77
2019-02-09T21:40:38.689Z,2.00
2019-02-09T21:43:07.437Z,1.80
2019-02-09T21:45:36.322Z,1.60
2019-02-09T21:48:05.282Z,1.93
2019-02-09T21:50:34.889Z,1.63
2019-02-09T21:53:04.009Z,1.70
2019-02-09T21:55:32.845Z,2.20
2019-02-09T21:58:01.663Z,2.03
2019-02-09T22:00:34.045Z,2.00
2019-02-09T22:03:03.123Z,2.27
2019-02-09T22:05:31.892Z,1.60
2019-02-09T22:08:00.933Z,2.30
2019-02-09T22:10:33.860Z,2.10
2019-02-09T22:13:00.587Z,2.57
2019-02-09T22:15:30.659Z,2.07
2019-02-09T22:18:00.041Z,2.27
2019-02-09T22:20:28.764Z,2.47
2019-02-09T22:22:57.616Z,1.60
2019-02-09T22:25:26.404Z,1.70
2019-02-09T22:27:55.385Z,2.33
2019-02-09T22:30:25.241Z,2.20
2019-02-09T22:32:54.194Z,2.17
2019-02-09T22:35:23.122Z,2.10
2019-02-09T22:37:51.893Z,2.10
2019-02-09T22:40:21.990Z,2.20
2019-02-09T22:42:50.813Z,1.53
2019-02-09T22:45:19.943Z,1.80
2019-02-09T22:47:48.698Z,2.50
2019-02-09T22:50:19.241Z,3.50
2019-02-09T22:52:48.194Z,2.03
2019-02-09T22:55:17.042Z,1.90
2019-02-09T22:57:45.822Z,2.60
2019-02-09T23:00:26.334Z,2.07
2019-02-09T23:02:55.119Z,2.10
2019-02-09T23:05:41.864Z,2.93
2019-02-09T23:08:10.677Z,1.67
2019-02-09T23:10:39.415Z,1.70
2019-02-09T23:13:08.227Z,1.87
2019-02-09T23:15:37.111Z,2.63
2019-02-09T23:18:05.898Z,2.00
2019-02-09T23:20:34.705Z,1.67
2019-02-09T23:23:03.537Z,1.83
2019-02-09T23:25:32.328Z,2.33
2019-02-09T23:28:01.386Z,2.37
2019-02-09T23:30:30.136Z,2.27
2019-02-09T23:32:58.958Z,2.00
2019-02-09T23:35:27.718Z,1.67
2019-02-09T23:37:56.739Z,2.13
2019-02-09T23:40:25.534Z,1.60
2019-02-09T23:42:54.544Z,2.13
2019-02-09T23:45:23.464Z,1.80
2019-02-09T23:47:52.427Z,2.43
2019-02-09T23:50:21.212Z,2.30
2019-02-09T23:52:49.952Z,2.13
2019-02-09T23:55:18.752Z,2.27
2019-02-09T23:57:47.471Z,1.93
